If you wish to contribute or participate in the discussions about articles you are invited to join SKYbrary as a registered user

 Actions

Huesca/Pirineos Airport

From SKYbrary Wiki

LEHC
Airport
ICAO: LEHC – IATA: HSK
Summary
Name Huesca/Pirineos Airport
Region Europe
Territory Spain ES.gif
Location , Aragon
Serving Huesca
Elevation 538.886 m
1,768 ft
1,768 ft538.886 m
Type small airport
Coordinates 42° 4' 51.00" N, 0° 19' 24.00" W
Runways
Designator Length Width Surface ROPS


METAR
Observation LEHC 171400Z 27004KT CAVOK 29/13 Q1017
Station HUESCA-PIRINEOS
Date/Time 17 September 2019 14:00:00
Wind direction 270°
Wind speed 04 kts
Lowest cloud amount clouds and visibility OK
Temperature 29°C
Dew point 13°C
Humidity 37%
QNH 1017 hPa
Weather condition n/a